Terminal Aerodrome Forecast
Issued by NWS

Home | Current Version | Previous Version | Text Only | Print | Product List | Glossary On
Versions: 1 2 3 4 5 6 7 8 9 10 11 12 13 14 15 16 17 18 19 20 21
000
FTUS41 KGYX 241948 AAA
TAFAUG
TAF AMD
KAUG 241948Z 2420/2518 26010G20KT P6SM SCT100
     FM250000 24005KT P6SM SKC
     FM251200 24006KT P6SM BKN250
     FM251400 23010G17KT P6SM BKN050=

USA.gov is the U.S. government's official web portal to all federal, state and local government web resources and services.